Schneiders Prairie, Washington
Current Conditions -  °F | °C
As of 10:54 AM on Saturday 25 Oct 2014 (Local Time) from KOLM Reporting Station
Light Rain Light Rain  
Wind Chill: 52°   Ceiling: 6000
Heat Index: 52°   Visibility: 9mi
Dew Point: 50°   Wind: 7mph
Humidity: 93%   Direction: 10°N
Pressure: 29.44"   Gusts: NA
Location:  46.9755°N, 122.872°W
Report Text: KOLM 251754Z 01006KT 9SM -RA SCT004 BKN060 OVC085 11/10 A2944 RMK AO2 RAB53 SLP968 P0000 60006 T01110100 10111 20078 58035
Loading
Personal Weather Stations






























Interactive Weather Map
Tropical Storm Tracking
New forecast layout! Learn more

10-Day Weather Forecast

Advertisements
Track Severe Weather on mobile